Temp: 5.5°C   Baro: 1032.5mb
  Wind: 4.9mph   Dir: ESE (102°)
  Rain: 0.0mm (0.0mm/hr)
  Solar: 0W/m2  Hum: 80%
 
Bath Spa Weather Historical Data
Daily Summary for October 31, 2019 Units:  Metric    English   Both
Next Day »
Daily Weekly Monthly Yearly Custom
  High: Low: Average:
Temperature: 12.3 °C 6.9 °C 9.3 °C
Dew Point: 11.7 °C 6.0 °C 8.3 °C
Humidity: 96% 91% 93%
Wind Speed: 16.3km/h 0.0km/h 4.5km/h
Wind Gust: 19.3km/h - -
Wind direction- - ESE
Pressure: 1018.8 hPa 1003.9 hPa -
Precipitation: 0.5 mm    
Historical Graphs
 
 
Tabular Data for October 31, 2019
Time Temperature Dew Point Pressure Wind direction Wind Speed Wind Gust Humidity Rainfall Rate (Hourly) solar
00:00 7.5 °C 6.4 °C 1017.8 hPa NE 1.4 km/h 11.3 km/h 93% 0.3 mm 0.00 W/m2
00:05 7.5 °C 6.4 °C 1017.8 hPa East 1.4 km/h 14.5 km/h 93% 0.3 mm 0.00 W/m2
00:10 7.5 °C 6.4 °C 1017.8 hPa East 3.2 km/h 11.3 km/h 93% 0.3 mm 0.00 W/m2
00:15 7.4 °C 6.3 °C 1017.8 hPa East 6.4 km/h 14.5 km/h 93% 0.3 mm 0.00 W/m2
00:20 7.4 °C 6.3 °C 1017.8 hPa East 11.1 km/h 12.9 km/h 93% 0.3 mm 0.00 W/m2
00:25 7.4 °C 6.3 °C 1017.8 hPa Calm   14.5 km/h 93% 0.5 mm 0.00 W/m2
00:30 7.4 °C 6.3 °C 1017.8 hPa ESE 11.1 km/h 16.1 km/h 93% 0.5 mm 0.00 W/m2
00:35 7.4 °C 6.3 °C 1017.8 hPa Calm   8.0 km/h 93% 0.5 mm 0.00 W/m2
00:40 7.4 °C 6.3 °C 1017.8 hPa ESE 6.4 km/h 14.5 km/h 93% 0.3 mm 0.00 W/m2
00:45 7.4 °C 6.3 °C 1017.8 hPa ENE 3.2 km/h 11.3 km/h 93% 0.3 mm 0.00 W/m2
00:50 7.4 °C 6.3 °C 1017.8 hPa ESE 4.7 km/h 17.7 km/h 93% 0.3 mm 0.00 W/m2
00:55 7.4 °C 6.3 °C 1017.8 hPa ENE 7.9 km/h 9.7 km/h 93% 0.3 mm 0.00 W/m2
01:00 7.4 °C 6.3 °C 1017.8 hPa Calm   3.2 km/h 93% 0.3 mm 0.00 W/m2
01:05 7.4 °C 6.3 °C 1017.8 hPa ESE 3.2 km/h 16.1 km/h 93% 0.3 mm 0.00 W/m2
01:10 7.4 °C 6.3 °C 1017.8 hPa East 7.9 km/h 14.5 km/h 93% 0.3 mm 0.00 W/m2
01:15 7.4 °C 6.3 °C 1017.8 hPa East 3.2 km/h 14.5 km/h 93% 0.3 mm 0.00 W/m2
01:20 7.4 °C 6.3 °C 1017.8 hPa East 13.0 km/h 12.9 km/h 93% 0.3 mm 0.00 W/m2
01:25 7.4 °C 6.3 °C 1017.8 hPa ENE 7.9 km/h 16.1 km/h 93% 0.3 mm 0.00 W/m2
01:30 7.4 °C 6.3 °C 1017.8 hPa East 6.4 km/h 11.3 km/h 93% 0.3 mm 0.00 W/m2
01:35 7.3 °C 6.4 °C 1017.8 hPa ESE 3.2 km/h 14.5 km/h 94% 0.3 mm 0.00 W/m2
01:40 7.3 °C 6.4 °C 1017.8 hPa SE 3.2 km/h 12.9 km/h 94% 0.3 mm 0.00 W/m2
01:45 7.3 °C 6.4 °C 1017.8 hPa ESE 1.4 km/h 11.3 km/h 94% 0.3 mm 0.00 W/m2
01:50 7.3 °C 6.4 °C 1017.8 hPa ESE 9.7 km/h 12.9 km/h 94% 0.3 mm 0.00 W/m2
01:55 7.2 °C 6.1 °C 1017.5 hPa ESE 11.1 km/h 11.3 km/h 93% 0.3 mm 0.00 W/m2
02:00 7.2 °C 6.1 °C 1017.5 hPa Calm   14.5 km/h 93% 0.3 mm 0.00 W/m2
02:05 7.2 °C 6.1 °C 1017.5 hPa ENE 4.7 km/h 6.4 km/h 93% 0.3 mm 0.00 W/m2
02:10 7.2 °C 6.1 °C 1017.8 hPa East 11.1 km/h 17.7 km/h 93% 0.3 mm 0.00 W/m2
02:15 7.1 °C 6.0 °C 1017.8 hPa ESE 16.3 km/h 16.1 km/h 93% 0.3 mm 0.00 W/m2
02:20 7.1 °C 6.2 °C 1017.8 hPa East 7.9 km/h 12.9 km/h 94% 0.3 mm 0.00 W/m2
02:25 7.1 °C 6.2 °C 1017.8 hPa NE 3.2 km/h 19.3 km/h 94% 0.0 mm 0.00 W/m2
02:30 7.0 °C 6.1 °C 1017.8 hPa ESE 6.4 km/h 12.9 km/h 94% 0.0 mm 0.00 W/m2
02:35 7.0 °C 6.1 °C 1017.8 hPa SE 9.7 km/h 14.5 km/h 94% 0.0 mm 0.00 W/m2
02:40 7.0 °C 6.1 °C 1017.8 hPa ESE 7.9 km/h 12.9 km/h 94% 0.0 mm 0.00 W/m2
02:45 7.0 °C 6.1 °C 1017.8 hPa ENE 4.7 km/h 14.5 km/h 94% 0.0 mm 0.00 W/m2
02:50 6.9 °C 6.0 °C 1017.8 hPa ENE 6.4 km/h 14.5 km/h 94% 0.3 mm 0.00 W/m2
02:55 6.9 °C 6.0 °C 1017.8 hPa SE 6.4 km/h 17.7 km/h 94% 0.3 mm 0.00 W/m2
03:00 6.9 °C 6.0 °C 1017.8 hPa ESE 6.4 km/h 16.1 km/h 94% 0.3 mm 0.00 W/m2
03:05 6.9 °C 6.0 °C 1017.8 hPa ESE 7.9 km/h 12.9 km/h 94% 0.3 mm 0.00 W/m2
03:10 6.9 °C 6.0 °C 1017.8 hPa East 4.7 km/h 16.1 km/h 94% 0.3 mm 0.00 W/m2
03:15 6.9 °C 6.0 °C 1017.8 hPa ESE 6.4 km/h 16.1 km/h 94% 0.3 mm 5.00 W/m2
03:20 7.1 °C 6.2 °C 1017.8 hPa SE 3.2 km/h 16.1 km/h 94% 0.3 mm 7.00 W/m2
03:25 7.3 °C 6.4 °C 1017.8 hPa East 6.4 km/h 12.9 km/h 94% 0.3 mm 9.00 W/m2
03:30 7.1 °C 6.2 °C 1017.8 hPa SE 7.9 km/h 16.1 km/h 94% 0.3 mm 11.00 W/m2
03:35 6.9 °C 6.0 °C 1018.2 hPa East 6.4 km/h 11.3 km/h 94% 0.3 mm 14.00 W/m2
03:40 7.0 °C 6.1 °C 1018.2 hPa ENE 11.1 km/h 16.1 km/h 94% 0.3 mm 16.00 W/m2
03:45 7.0 °C 6.1 °C 1018.2 hPa ESE 4.7 km/h 16.1 km/h 94% 0.3 mm 19.00 W/m2
03:50 7.0 °C 6.1 °C 1018.2 hPa SE 9.7 km/h 11.3 km/h 94% 0.0 mm 25.00 W/m2
03:55 7.0 °C 6.1 °C 1018.2 hPa ESE 13.0 km/h 17.7 km/h 94% 0.0 mm 32.00 W/m2
04:00 7.1 °C 6.2 °C 1018.2 hPa Calm   12.9 km/h 94% 0.0 mm 35.00 W/m2
04:05 7.1 °C 6.2 °C 1018.2 hPa ESE 14.5 km/h 14.5 km/h 94% 0.0 mm 35.00 W/m2
04:10 7.1 °C 6.2 °C 1018.5 hPa Calm   14.5 km/h 94% 0.0 mm 35.00 W/m2
04:15 7.1 °C 6.2 °C 1018.5 hPa East 3.2 km/h 4.8 km/h 94% 0.0 mm 35.00 W/m2
04:20 7.1 °C 6.2 °C 1018.5 hPa SE 4.7 km/h 12.9 km/h 94% 0.0 mm 39.00 W/m2
04:25 7.1 °C 6.2 °C 1018.5 hPa SE 6.4 km/h 12.9 km/h 94% 0.0 mm 40.00 W/m2
04:30 7.1 °C 6.2 °C 1018.5 hPa East 1.4 km/h 8.0 km/h 94% 0.0 mm 42.00 W/m2
04:35 7.2 °C 6.3 °C 1018.5 hPa ESE 3.2 km/h 11.3 km/h 94% 0.0 mm 42.00 W/m2
04:40 7.2 °C 6.3 °C 1018.5 hPa ESE 3.2 km/h 12.9 km/h 94% 0.0 mm 44.00 W/m2
04:45 7.2 °C 6.3 °C 1018.2 hPa ESE 14.3 km/h 14.5 km/h 94% 0.0 mm 44.00 W/m2
04:50 7.2 °C 6.3 °C 1018.5 hPa SE 1.4 km/h 11.3 km/h 94% 0.0 mm 40.00 W/m2
04:55 7.2 °C 6.3 °C 1018.5 hPa ESE 9.7 km/h 17.7 km/h 94% 0.0 mm 39.00 W/m2
05:00 7.2 °C 6.3 °C 1018.5 hPa ESE 4.7 km/h 11.3 km/h 94% 0.0 mm 42.00 W/m2
05:05 7.3 °C 6.4 °C 1018.5 hPa East 6.4 km/h 9.7 km/h 94% 0.0 mm 49.00 W/m2
05:10 7.3 °C 6.4 °C 1018.2 hPa SE 1.4 km/h 11.3 km/h 94% 0.0 mm 63.00 W/m2
05:15 7.3 °C 6.4 °C 1018.2 hPa Calm   14.5 km/h 94% 0.0 mm 70.00 W/m2
05:20 7.3 °C 6.4 °C 1018.2 hPa Calm   12.9 km/h 94% 0.0 mm 84.00 W/m2
05:25 7.4 °C 6.5 °C 1018.2 hPa Calm   11.3 km/h 94% 0.0 mm 86.00 W/m2
05:30 7.4 °C 6.5 °C 1018.5 hPa SE 3.2 km/h 16.1 km/h 94% 0.0 mm 83.00 W/m2
05:35 7.4 °C 6.5 °C 1018.5 hPa SE 4.7 km/h 12.9 km/h 94% 0.0 mm 81.00 W/m2
05:40 7.5 °C 6.6 °C 1018.5 hPa ESE 9.7 km/h 11.3 km/h 94% 0.0 mm 79.00 W/m2
05:45 7.5 °C 6.4 °C 1018.5 hPa ESE 4.7 km/h 14.5 km/h 93% 0.0 mm 76.00 W/m2
05:50 7.6 °C 6.5 °C 1018.5 hPa ESE 6.4 km/h 11.3 km/h 93% 0.0 mm 76.00 W/m2
05:55 7.6 °C 6.7 °C 1018.5 hPa ESE 6.4 km/h 6.4 km/h 94% 0.0 mm 81.00 W/m2
06:00 7.7 °C 6.8 °C 1018.5 hPa ESE 3.2 km/h 11.3 km/h 94% 0.0 mm 88.00 W/m2
06:05 7.7 °C 6.6 °C 1018.5 hPa ESE 4.7 km/h 11.3 km/h 93% 0.0 mm 88.00 W/m2
06:10 7.8 °C 6.7 °C 1018.8 hPa ENE 7.9 km/h 8.0 km/h 93% 0.0 mm 83.00 W/m2
06:15 7.8 °C 6.7 °C 1018.8 hPa Calm   8.0 km/h 93% 0.0 mm 74.00 W/m2
06:20 7.9 °C 6.8 °C 1018.5 hPa ESE 7.9 km/h 8.0 km/h 93% 0.0 mm 76.00 W/m2
06:25 7.9 °C 6.8 °C 1018.5 hPa ESE 4.7 km/h 14.5 km/h 93% 0.0 mm 83.00 W/m2
06:30 7.9 °C 6.8 °C 1018.5 hPa ESE 4.7 km/h 9.7 km/h 93% 0.0 mm 88.00 W/m2
06:35 8.0 °C 6.9 °C 1018.8 hPa East 7.9 km/h 8.0 km/h 93% 0.0 mm 90.00 W/m2
06:40 8.0 °C 6.9 °C 1018.8 hPa SE 1.4 km/h 9.7 km/h 93% 0.0 mm 84.00 W/m2
06:45 8.1 °C 7.0 °C 1018.8 hPa ESE 3.2 km/h 4.8 km/h 93% 0.0 mm 79.00 W/m2
06:50 8.1 °C 7.0 °C 1018.8 hPa ENE 4.7 km/h 11.3 km/h 93% 0.0 mm 86.00 W/m2
06:55 8.2 °C 7.1 °C 1018.8 hPa Calm   8.0 km/h 93% 0.0 mm 95.00 W/m2
07:00 8.2 °C 7.1 °C 1018.8 hPa Calm   11.3 km/h 93% 0.0 mm 98.00 W/m2
07:05 8.3 °C 7.2 °C 1018.5 hPa ESE 3.2 km/h 9.7 km/h 93% 0.0 mm 128.00 W/m2
07:10 8.4 °C 7.3 °C 1018.5 hPa SSE 4.7 km/h 9.7 km/h 93% 0.0 mm 139.00 W/m2
07:15 8.4 °C 7.3 °C 1018.5 hPa ESE 1.4 km/h 8.0 km/h 93% 0.0 mm 127.00 W/m2
07:20 8.5 °C 7.4 °C 1018.5 hPa East 4.7 km/h 12.9 km/h 93% 0.0 mm 118.00 W/m2
07:25 8.6 °C 7.5 °C 1018.5 hPa ESE 6.4 km/h 14.5 km/h 93% 0.0 mm 107.00 W/m2
07:30 8.6 °C 7.5 °C 1018.5 hPa Calm   4.8 km/h 93% 0.0 mm 102.00 W/m2
07:35 8.7 °C 7.6 °C 1018.5 hPa ESE 4.7 km/h 12.9 km/h 93% 0.0 mm 98.00 W/m2
07:40 8.7 °C 7.6 °C 1018.2 hPa ESE 3.2 km/h 8.0 km/h 93% 0.0 mm 102.00 W/m2
07:45 8.7 °C 7.6 °C 1018.2 hPa SE 6.4 km/h 11.3 km/h 93% 0.0 mm 113.00 W/m2
07:50 8.8 °C 7.7 °C 1018.2 hPa ESE 1.4 km/h 6.4 km/h 93% 0.0 mm 120.00 W/m2
07:55 8.8 °C 7.6 °C 1018.2 hPa ESE 3.2 km/h 9.7 km/h 92% 0.0 mm 102.00 W/m2
08:00 8.8 °C 7.6 °C 1018.2 hPa East 6.4 km/h 8.0 km/h 92% 0.0 mm 97.00 W/m2
08:05 8.8 °C 7.6 °C 1018.2 hPa ESE 4.7 km/h 11.3 km/h 92% 0.0 mm 95.00 W/m2
08:10 8.8 °C 7.6 °C 1018.2 hPa ESE 11.1 km/h 11.3 km/h 92% 0.0 mm 95.00 W/m2
08:15 8.9 °C 7.7 °C 1018.2 hPa Calm   16.1 km/h 92% 0.0 mm 105.00 W/m2
08:20 8.9 °C 7.7 °C 1018.2 hPa Calm   11.3 km/h 92% 0.0 mm 88.00 W/m2
08:25 9.0 °C 7.8 °C 1018.2 hPa SE 6.4 km/h 6.4 km/h 92% 0.0 mm 79.00 W/m2
08:30 9.0 °C 7.8 °C 1018.2 hPa Calm   11.3 km/h 92% 0.0 mm 74.00 W/m2
08:35 9.0 °C 7.8 °C 1018.2 hPa ESE 1.4 km/h 11.3 km/h 92% 0.0 mm 70.00 W/m2
08:40 9.1 °C 7.9 °C 1018.2 hPa East 3.2 km/h 8.0 km/h 92% 0.0 mm 67.00 W/m2
08:45 9.1 °C 7.9 °C 1018.2 hPa ESE 6.4 km/h 6.4 km/h 92% 0.0 mm 58.00 W/m2
08:50 9.2 °C 8.0 °C 1018.2 hPa Calm   8.0 km/h 92% 0.0 mm 74.00 W/m2
08:55 9.2 °C 8.0 °C 1018.2 hPa ESE 3.2 km/h 11.3 km/h 92% 0.0 mm 83.00 W/m2
09:00 9.2 °C 8.0 °C 1018.2 hPa ESE 1.4 km/h 3.2 km/h 92% 0.0 mm 83.00 W/m2
09:05 9.3 °C 8.1 °C 1018.2 hPa SE 1.4 km/h 6.4 km/h 92% 0.0 mm 100.00 W/m2
09:10 9.4 °C 8.2 °C 1017.8 hPa Calm   8.0 km/h 92% 0.0 mm 95.00 W/m2
09:15 9.4 °C 8.2 °C 1017.8 hPa ESE 1.4 km/h 6.4 km/h 92% 0.0 mm 93.00 W/m2
09:20 9.4 °C 8.2 °C 1017.8 hPa East 3.2 km/h 8.0 km/h 92% 0.0 mm 84.00 W/m2
09:25 9.6 °C 8.4 °C 1017.8 hPa Calm   3.2 km/h 92% 0.0 mm 83.00 W/m2
09:30 9.6 °C 8.4 °C 1017.8 hPa Calm   4.8 km/h 92% 0.0 mm 97.00 W/m2
09:35 9.5 °C 8.3 °C 1017.8 hPa East 9.7 km/h 9.7 km/h 92% 0.0 mm 111.00 W/m2
09:40 9.6 °C 8.4 °C 1017.8 hPa SE 3.2 km/h 6.4 km/h 92% 0.0 mm 111.00 W/m2
09:45 9.6 °C 8.4 °C 1017.5 hPa ESE 3.2 km/h 8.0 km/h 92% 0.0 mm 102.00 W/m2
09:50 9.6 °C 8.4 °C 1017.5 hPa ESE 1.4 km/h 8.0 km/h 92% 0.0 mm 98.00 W/m2
09:55 9.6 °C 8.4 °C 1017.5 hPa SE 6.4 km/h 11.3 km/h 92% 0.0 mm 95.00 W/m2
10:00 9.6 °C 8.4 °C 1017.5 hPa ESE 3.2 km/h 12.9 km/h 92% 0.0 mm 97.00 W/m2
10:05 9.6 °C 8.4 °C 1017.5 hPa ESE 6.4 km/h 14.5 km/h 92% 0.0 mm 90.00 W/m2
10:10 9.6 °C 8.4 °C 1017.5 hPa ESE 11.1 km/h 11.3 km/h 92% 0.0 mm 90.00 W/m2
10:15 9.6 °C 8.4 °C 1017.5 hPa ESE 4.7 km/h 12.9 km/h 92% 0.0 mm 90.00 W/m2
10:20 9.6 °C 8.4 °C 1017.5 hPa ESE 7.9 km/h 8.0 km/h 92% 0.0 mm 105.00 W/m2
10:25 9.7 °C 8.5 °C 1017.2 hPa Calm   12.9 km/h 92% 0.0 mm 123.00 W/m2
10:30 9.7 °C 8.5 °C 1017.2 hPa SE 6.4 km/h 11.3 km/h 92% 0.0 mm 70.00 W/m2
10:35 9.7 °C 8.5 °C 1017.2 hPa ESE 1.4 km/h 12.9 km/h 92% 0.0 mm 44.00 W/m2
10:40 9.7 °C 8.5 °C 1017.2 hPa ESE 4.7 km/h 11.3 km/h 92% 0.0 mm 42.00 W/m2
10:45 9.7 °C 8.5 °C 1017.2 hPa SE 1.4 km/h 12.9 km/h 92% 0.0 mm 47.00 W/m2
10:50 9.8 °C 8.6 °C 1017.2 hPa ESE 7.9 km/h 9.7 km/h 92% 0.0 mm 44.00 W/m2
10:55 9.8 °C 8.6 °C 1017.2 hPa SE 4.7 km/h 4.8 km/h 92% 0.0 mm 44.00 W/m2
11:00 9.8 °C 8.6 °C 1017.2 hPa ESE 1.4 km/h 4.8 km/h 92% 0.0 mm 28.00 W/m2
11:05 9.8 °C 8.4 °C 1017.2 hPa SE 4.7 km/h 6.4 km/h 91% 0.0 mm 23.00 W/m2
11:10 9.8 °C 8.4 °C 1017.2 hPa Calm   8.0 km/h 91% 0.0 mm 26.00 W/m2
11:15 9.8 °C 8.4 °C 1017.2 hPa SE 4.7 km/h 12.9 km/h 91% 0.0 mm 33.00 W/m2
11:20 9.8 °C 8.4 °C 1016.8 hPa ESE 3.2 km/h 9.7 km/h 91% 0.0 mm 26.00 W/m2
11:25 9.9 °C 8.5 °C 1016.8 hPa SE 1.4 km/h 3.2 km/h 91% 0.0 mm 26.00 W/m2
11:30 9.9 °C 8.5 °C 1016.8 hPa Calm   3.2 km/h 91% 0.0 mm 28.00 W/m2
11:35 9.9 °C 8.5 °C 1016.8 hPa ESE 1.4 km/h 9.7 km/h 91% 0.0 mm 19.00 W/m2
11:40 9.9 °C 8.5 °C 1016.8 hPa ESE 4.7 km/h 8.0 km/h 91% 0.0 mm 21.00 W/m2
11:45 9.9 °C 8.5 °C 1016.8 hPa Calm   8.0 km/h 91% 0.0 mm 14.00 W/m2
11:50 9.9 °C 8.5 °C 1016.8 hPa ESE 1.4 km/h 9.7 km/h 91% 0.0 mm 19.00 W/m2
11:55 9.9 °C 8.5 °C 1016.8 hPa Calm   8.0 km/h 91% 0.0 mm 14.00 W/m2
12:00 9.9 °C 8.5 °C 1016.8 hPa East 7.9 km/h 9.7 km/h 91% 0.0 mm 7.00 W/m2
12:05 9.9 °C 8.5 °C 1016.5 hPa Calm   8.0 km/h 91% 0.0 mm 7.00 W/m2
12:10 9.9 °C 8.5 °C 1016.5 hPa ENE 7.9 km/h 12.9 km/h 91% 0.0 mm 7.00 W/m2
12:15 9.9 °C 8.5 °C 1016.5 hPa ESE 13.0 km/h 16.1 km/h 91% 0.0 mm 5.00 W/m2
12:20 9.9 °C 8.5 °C 1016.5 hPa NE 1.4 km/h 11.3 km/h 91% 0.0 mm 0.00 W/m2
12:25 10.0 °C 8.6 °C 1016.5 hPa Calm   6.4 km/h 91% 0.0 mm 0.00 W/m2
12:30 9.9 °C 8.5 °C 1016.5 hPa ENE 1.4 km/h 3.2 km/h 91% 0.0 mm 0.00 W/m2
12:35 9.9 °C 8.5 °C 1016.5 hPa ENE 1.4 km/h 9.7 km/h 91% 0.0 mm 0.00 W/m2
12:40 9.9 °C 8.5 °C 1016.5 hPa East 7.9 km/h 8.0 km/h 91% 0.0 mm 0.00 W/m2
12:45 9.9 °C 8.5 °C 1016.1 hPa SE 4.7 km/h 11.3 km/h 91% 0.0 mm 0.00 W/m2
12:50 9.9 °C 8.5 °C 1016.5 hPa ESE 3.2 km/h 4.8 km/h 91% 0.0 mm 0.00 W/m2
12:55 10.0 °C 8.6 °C 1016.5 hPa Calm   4.8 km/h 91% 0.0 mm 0.00 W/m2
13:00 10.0 °C 8.6 °C 1016.5 hPa SE 6.4 km/h 6.4 km/h 91% 0.0 mm 0.00 W/m2
13:05 10.0 °C 8.6 °C 1016.1 hPa SE 4.7 km/h 6.4 km/h 91% 0.0 mm 0.00 W/m2
13:10 10.0 °C 8.6 °C 1016.1 hPa SE 1.4 km/h 6.4 km/h 91% 0.0 mm 0.00 W/m2
13:15 10.0 °C 8.6 °C 1016.1 hPa SE 1.4 km/h 11.3 km/h 91% 0.0 mm 0.00 W/m2
13:20 10.1 °C 8.7 °C 1016.5 hPa ESE 7.9 km/h 11.3 km/h 91% 0.0 mm 0.00 W/m2
13:25 10.1 °C 8.7 °C 1016.5 hPa ESE 6.4 km/h 11.3 km/h 91% 0.0 mm 0.00 W/m2
13:30 10.0 °C 8.6 °C 1016.5 hPa ESE 1.4 km/h 12.9 km/h 91% 0.0 mm 0.00 W/m2
13:35 10.1 °C 8.7 °C 1016.5 hPa ESE 1.4 km/h 3.2 km/h 91% 0.0 mm 0.00 W/m2
13:40 10.0 °C 8.6 °C 1016.5 hPa Calm   4.8 km/h 91% 0.0 mm 0.00 W/m2
13:45 10.0 °C 8.6 °C 1016.1 hPa East 1.4 km/h 11.3 km/h 91% 0.0 mm 0.00 W/m2
13:50 10.0 °C 8.6 °C 1016.1 hPa East 1.4 km/h 3.2 km/h 91% 0.0 mm 0.00 W/m2
13:55 10.0 °C 8.6 °C 1016.1 hPa Calm   3.2 km/h 91% 0.3 mm 0.00 W/m2
14:00 10.0 °C 8.6 °C 1016.1 hPa East 4.7 km/h 8.0 km/h 91% 0.3 mm 0.00 W/m2
14:05 10.0 °C 8.8 °C 1016.1 hPa ESE 3.2 km/h 8.0 km/h 92% 0.3 mm 0.00 W/m2
14:10 10.0 °C 8.8 °C 1016.1 hPa ESE 4.7 km/h 6.4 km/h 92% 0.3 mm 0.00 W/m2
14:15 10.0 °C 8.8 °C 1015.8 hPa East 1.4 km/h 8.0 km/h 92% 0.3 mm 0.00 W/m2
14:20 10.0 °C 8.8 °C 1015.8 hPa ESE 1.4 km/h 8.0 km/h 92% 0.3 mm 0.00 W/m2
14:25 10.0 °C 8.8 °C 1015.8 hPa Calm   8.0 km/h 92% 0.3 mm 0.00 W/m2
14:30 9.9 °C 8.7 °C 1015.8 hPa East 3.2 km/h 4.8 km/h 92% 0.3 mm 0.00 W/m2
14:35 9.9 °C 8.7 °C 1015.8 hPa ENE 1.4 km/h 1.6 km/h 92% 0.3 mm 0.00 W/m2
14:40 9.9 °C 8.7 °C 1015.8 hPa Calm   3.2 km/h 92% 0.5 mm 0.00 W/m2
14:45 9.9 °C 8.7 °C 1015.8 hPa East 1.4 km/h 3.2 km/h 92% 0.5 mm 0.00 W/m2
14:50 9.9 °C 8.7 °C 1015.8 hPa East 4.7 km/h 6.4 km/h 92% 0.5 mm 0.00 W/m2
14:55 9.9 °C 8.7 °C 1015.5 hPa ESE 3.2 km/h 11.3 km/h 92% 0.3 mm 0.00 W/m2
15:00 9.9 °C 8.7 °C 1015.5 hPa Calm   6.4 km/h 92% 0.3 mm 0.00 W/m2
15:05 9.9 °C 8.8 °C 1015.1 hPa Calm   6.4 km/h 93% 0.3 mm 0.00 W/m2
15:10 9.9 °C 8.8 °C 1015.1 hPa NE 3.2 km/h 12.9 km/h 93% 0.3 mm 0.00 W/m2
15:15 9.9 °C 8.8 °C 1014.8 hPa ESE 7.9 km/h 12.9 km/h 93% 0.3 mm 0.00 W/m2
15:20 9.9 °C 8.8 °C 1014.8 hPa ESE 1.4 km/h 6.4 km/h 93% 0.3 mm 0.00 W/m2
15:25 9.9 °C 8.8 °C 1014.8 hPa ESE 4.7 km/h 11.3 km/h 93% 0.3 mm 0.00 W/m2
15:30 9.8 °C 8.7 °C 1014.8 hPa ESE 3.2 km/h 12.9 km/h 93% 0.3 mm 0.00 W/m2
15:35 9.8 °C 8.7 °C 1014.8 hPa SE 6.4 km/h 14.5 km/h 93% 0.3 mm 0.00 W/m2
15:40 9.8 °C 8.7 °C 1014.8 hPa SE 3.2 km/h 12.9 km/h 93% 0.0 mm 0.00 W/m2
15:45 9.9 °C 8.8 °C 1014.8 hPa SSE 6.4 km/h 14.5 km/h 93% 0.0 mm 0.00 W/m2
15:50 9.9 °C 8.8 °C 1014.4 hPa SSE 9.7 km/h 14.5 km/h 93% 0.0 mm 0.00 W/m2
15:55 9.9 °C 8.8 °C 1014.4 hPa SSE 9.7 km/h 16.1 km/h 93% 0.0 mm 0.00 W/m2
16:00 9.9 °C 8.8 °C 1014.4 hPa SE 11.1 km/h 14.5 km/h 93% 0.0 mm 0.00 W/m2
16:05 9.9 °C 8.8 °C 1014.4 hPa SE 9.7 km/h 17.7 km/h 93% 0.0 mm 0.00 W/m2
16:10 9.9 °C 9.0 °C 1014.4 hPa ESE 7.9 km/h 12.9 km/h 94% 0.0 mm 0.00 W/m2
16:15 9.9 °C 9.0 °C 1014.4 hPa SSE 9.7 km/h 11.3 km/h 94% 0.0 mm 0.00 W/m2
16:20 9.9 °C 9.0 °C 1014.4 hPa South 13.0 km/h 16.1 km/h 94% 0.0 mm 0.00 W/m2
16:25 9.9 °C 9.0 °C 1014.4 hPa SSE 6.4 km/h 14.5 km/h 94% 0.0 mm 0.00 W/m2
16:30 10.0 °C 9.1 °C 1014.1 hPa SSE 3.2 km/h 17.7 km/h 94% 0.0 mm 0.00 W/m2
16:35 10.0 °C 9.1 °C 1014.1 hPa SSE 6.4 km/h 14.5 km/h 94% 0.0 mm 0.00 W/m2
16:40 10.0 °C 9.1 °C 1014.1 hPa ESE 9.7 km/h 14.5 km/h 94% 0.0 mm 0.00 W/m2
16:45 10.0 °C 9.1 °C 1014.1 hPa SSW 9.7 km/h 14.5 km/h 94% 0.0 mm 0.00 W/m2
16:50 10.0 °C 9.1 °C 1014.1 hPa SSE 16.3 km/h 17.7 km/h 94% 0.0 mm 0.00 W/m2
16:55 10.0 °C 9.1 °C 1013.8 hPa SE 4.7 km/h 14.5 km/h 94% 0.0 mm 0.00 W/m2
17:00 10.1 °C 9.2 °C 1013.8 hPa Calm   11.3 km/h 94% 0.0 mm 0.00 W/m2
17:05 10.1 °C 9.2 °C 1013.8 hPa ESE 11.1 km/h 14.5 km/h 94% 0.0 mm 0.00 W/m2
17:10 10.1 °C 9.2 °C 1013.4 hPa SSE 7.9 km/h 16.1 km/h 94% 0.0 mm 0.00 W/m2
17:15 10.1 °C 9.2 °C 1013.4 hPa SSE 4.7 km/h 9.7 km/h 94% 0.0 mm 0.00 W/m2
17:20 10.1 °C 9.2 °C 1013.4 hPa ESE 3.2 km/h 12.9 km/h 94% 0.0 mm 0.00 W/m2
17:25 10.1 °C 9.2 °C 1013.4 hPa ESE 9.7 km/h 11.3 km/h 94% 0.0 mm 0.00 W/m2
17:30 10.1 °C 9.2 °C 1013.1 hPa SE 4.7 km/h 14.5 km/h 94% 0.0 mm 0.00 W/m2
17:35 10.1 °C 9.2 °C 1013.1 hPa SE 11.1 km/h 17.7 km/h 94% 0.0 mm 0.00 W/m2
17:40 10.1 °C 9.2 °C 1012.8 hPa ESE 6.4 km/h 12.9 km/h 94% 0.0 mm 0.00 W/m2
17:45 10.1 °C 9.2 °C 1012.8 hPa ESE 9.7 km/h 14.5 km/h 94% 0.0 mm 0.00 W/m2
17:50 10.1 °C 9.2 °C 1012.8 hPa SE 7.9 km/h 8.0 km/h 94% 0.0 mm 0.00 W/m2
17:55 10.1 °C 9.2 °C 1012.8 hPa SE 6.4 km/h 9.7 km/h 94% 0.3 mm 0.00 W/m2
18:00 10.1 °C 9.2 °C 1012.8 hPa SE 7.9 km/h 8.0 km/h 94% 0.3 mm 0.00 W/m2
18:05 10.1 °C 9.3 °C 1012.8 hPa SE 3.2 km/h 8.0 km/h 95% 0.3 mm 0.00 W/m2
18:10 10.1 °C 9.3 °C 1012.4 hPa ESE 11.1 km/h 12.9 km/h 95% 0.3 mm 0.00 W/m2
18:15 10.2 °C 9.4 °C 1012.4 hPa SE 4.7 km/h 12.9 km/h 95% 0.3 mm 0.00 W/m2
18:20 10.1 °C 9.2 °C 1012.4 hPa SE 3.2 km/h 9.7 km/h 94% 0.5 mm 0.00 W/m2
18:25 10.2 °C 9.4 °C 1012.1 hPa SE 4.7 km/h 9.7 km/h 95% 0.5 mm 0.00 W/m2
18:30 10.2 °C 9.4 °C 1012.1 hPa ESE 7.9 km/h 8.0 km/h 95% 0.5 mm 0.00 W/m2
18:35 10.2 °C 9.4 °C 1012.1 hPa ESE 9.7 km/h 11.3 km/h 95% 0.5 mm 0.00 W/m2
18:40 10.2 °C 9.4 °C 1011.7 hPa SE 4.7 km/h 4.8 km/h 95% 0.5 mm 0.00 W/m2
18:45 10.2 °C 9.4 °C 1011.7 hPa SE 4.7 km/h 9.7 km/h 95% 0.5 mm 0.00 W/m2
18:50 10.2 °C 9.4 °C 1011.7 hPa ESE 1.4 km/h 11.3 km/h 95% 0.5 mm 0.00 W/m2
18:55 10.2 °C 9.4 °C 1011.7 hPa ESE 11.1 km/h 11.3 km/h 95% 0.5 mm 0.00 W/m2
19:00 10.2 °C 9.4 °C 1011.4 hPa ESE 4.7 km/h 11.3 km/h 95% 0.5 mm 0.00 W/m2
19:05 10.2 °C 9.4 °C 1011.4 hPa East 4.7 km/h 8.0 km/h 95% 0.5 mm 0.00 W/m2
19:10 10.3 °C 9.5 °C 1011.1 hPa ESE 3.2 km/h 11.3 km/h 95% 0.5 mm 0.00 W/m2
19:15 10.3 °C 9.5 °C 1011.1 hPa ESE 3.2 km/h 11.3 km/h 95% 0.5 mm 0.00 W/m2
19:20 10.2 °C 9.4 °C 1011.1 hPa ESE 6.4 km/h 9.7 km/h 95% 0.5 mm 0.00 W/m2
19:25 10.2 °C 9.4 °C 1010.7 hPa East 6.4 km/h 11.3 km/h 95% 0.5 mm 0.00 W/m2
19:30 10.2 °C 9.4 °C 1010.7 hPa ESE 3.2 km/h 4.8 km/h 95% 0.5 mm 0.00 W/m2
19:35 10.3 °C 9.5 °C 1010.7 hPa ENE 1.4 km/h 11.3 km/h 95% 0.5 mm 0.00 W/m2
19:40 10.3 °C 9.5 °C 1010.7 hPa East 4.7 km/h 8.0 km/h 95% 0.5 mm 0.00 W/m2
19:45 10.3 °C 9.5 °C 1010.7 hPa East 6.4 km/h 11.3 km/h 95% 0.5 mm 0.00 W/m2
19:50 10.3 °C 9.5 °C 1010.4 hPa ESE 1.4 km/h 12.9 km/h 95% 0.5 mm 0.00 W/m2
19:55 10.3 °C 9.5 °C 1010.4 hPa Calm   6.4 km/h 95% 0.5 mm 0.00 W/m2
20:00 10.3 °C 9.5 °C 1010.4 hPa ESE 1.4 km/h 4.8 km/h 95% 0.5 mm 0.00 W/m2
20:05 10.3 °C 9.5 °C 1010.4 hPa East 1.4 km/h 4.8 km/h 95% 0.5 mm 0.00 W/m2
20:10 10.3 °C 9.5 °C 1010.4 hPa Calm   4.8 km/h 95% 0.5 mm 0.00 W/m2
20:15 10.3 °C 9.5 °C 1010.0 hPa East 1.4 km/h 3.2 km/h 95% 0.5 mm 0.00 W/m2
20:20 10.3 °C 9.5 °C 1010.0 hPa Calm   3.2 km/h 95% 0.5 mm 0.00 W/m2
20:25 10.3 °C 9.5 °C 1010.0 hPa East 1.4 km/h 8.0 km/h 95% 0.5 mm 0.00 W/m2
20:30 10.4 °C 9.6 °C 1010.0 hPa East 1.4 km/h 6.4 km/h 95% 0.3 mm 0.00 W/m2
20:35 10.4 °C 9.6 °C 1009.7 hPa East 4.7 km/h 4.8 km/h 95% 0.3 mm 0.00 W/m2
20:40 10.4 °C 9.6 °C 1009.7 hPa Calm   3.2 km/h 95% 0.3 mm 0.00 W/m2
20:45 10.4 °C 9.6 °C 1009.4 hPa Calm   3.2 km/h 95% 0.0 mm 0.00 W/m2
20:50 10.5 °C 9.7 °C 1009.0 hPa ESE 3.2 km/h 8.0 km/h 95% 0.0 mm 0.00 W/m2
20:55 10.5 °C 9.7 °C 1009.0 hPa Calm   3.2 km/h 95% 0.3 mm 0.00 W/m2
21:00 10.6 °C 9.8 °C 1009.0 hPa ESE 1.4 km/h 3.2 km/h 95% 0.3 mm 0.00 W/m2
21:05 10.6 °C 9.8 °C 1008.7 hPa Calm   6.4 km/h 95% 0.3 mm 0.00 W/m2
21:10 10.7 °C 9.9 °C 1008.7 hPa ESE 3.2 km/h 8.0 km/h 95% 0.3 mm 0.00 W/m2
21:15 10.7 °C 9.9 °C 1008.7 hPa ESE 4.7 km/h 8.0 km/h 95% 0.3 mm 0.00 W/m2
21:20 10.8 °C 10.0 °C 1008.4 hPa SE 3.2 km/h 9.7 km/h 95% 0.3 mm 0.00 W/m2
21:25 10.9 °C 10.1 °C 1008.4 hPa SE 4.7 km/h 6.4 km/h 95% 0.3 mm 0.00 W/m2
21:30 10.9 °C 10.1 °C 1008.4 hPa ESE 3.2 km/h 8.0 km/h 95% 0.3 mm 0.00 W/m2
21:35 11.0 °C 10.2 °C 1008.0 hPa SE 4.7 km/h 8.0 km/h 95% 0.3 mm 0.00 W/m2
21:40 11.0 °C 10.2 °C 1008.0 hPa SE 6.4 km/h 6.4 km/h 95% 0.3 mm 0.00 W/m2
21:45 11.0 °C 10.2 °C 1008.0 hPa SE 4.7 km/h 6.4 km/h 95% 0.3 mm 0.00 W/m2
21:50 11.1 °C 10.5 °C 1007.7 hPa SE 3.2 km/h 8.0 km/h 96% 0.5 mm 0.00 W/m2
21:55 11.1 °C 10.5 °C 1007.7 hPa SE 1.4 km/h 4.8 km/h 96% 0.5 mm 0.00 W/m2
22:00 11.2 °C 10.6 °C 1007.3 hPa SE 6.4 km/h 9.7 km/h 96% 0.3 mm 0.00 W/m2
22:05 11.3 °C 10.7 °C 1007.3 hPa SE 3.2 km/h 8.0 km/h 96% 0.3 mm 0.00 W/m2
22:10 11.4 °C 10.6 °C 1007.0 hPa SE 6.4 km/h 8.0 km/h 95% 0.3 mm 0.00 W/m2
22:15 11.4 °C 10.8 °C 1006.7 hPa ESE 4.7 km/h 9.7 km/h 96% 0.3 mm 0.00 W/m2
22:20 11.5 °C 10.9 °C 1006.7 hPa ESE 13.0 km/h 12.9 km/h 96% 0.3 mm 0.00 W/m2
22:25 11.6 °C 11.0 °C 1006.3 hPa SE 3.2 km/h 11.3 km/h 96% 0.3 mm 0.00 W/m2
22:30 11.7 °C 11.1 °C 1006.3 hPa SE 4.7 km/h 9.7 km/h 96% 0.3 mm 0.00 W/m2
22:35 11.7 °C 11.1 °C 1006.3 hPa SE 3.2 km/h 8.0 km/h 96% 0.3 mm 0.00 W/m2
22:40 11.7 °C 11.1 °C 1006.0 hPa ESE 7.9 km/h 11.3 km/h 96% 0.3 mm 0.00 W/m2
22:45 11.8 °C 11.2 °C 1005.6 hPa ESE 4.7 km/h 6.4 km/h 96% 0.3 mm 0.00 W/m2
22:50 11.9 °C 11.3 °C 1005.6 hPa ESE 1.4 km/h 12.9 km/h 96% 0.0 mm 0.00 W/m2
22:55 12.0 °C 11.4 °C 1005.3 hPa ESE 6.4 km/h 8.0 km/h 96% 0.0 mm 0.00 W/m2
23:00 12.0 °C 11.4 °C 1005.3 hPa SE 7.9 km/h 14.5 km/h 96% 0.0 mm 0.00 W/m2
23:05 12.1 °C 11.5 °C 1005.3 hPa ESE 7.9 km/h 8.0 km/h 96% 0.0 mm 0.00 W/m2
23:10 12.1 °C 11.5 °C 1005.0 hPa SE 6.4 km/h 8.0 km/h 96% 0.0 mm 0.00 W/m2
23:15 12.1 °C 11.5 °C 1005.0 hPa SE 4.7 km/h 9.7 km/h 96% 0.0 mm 0.00 W/m2
23:20 12.1 °C 11.5 °C 1005.0 hPa SE 3.2 km/h 9.7 km/h 96% 0.0 mm 0.00 W/m2
23:25 12.2 °C 11.6 °C 1005.0 hPa SE 3.2 km/h 8.0 km/h 96% 0.0 mm 0.00 W/m2
23:30 12.2 °C 11.6 °C 1004.6 hPa Calm   6.4 km/h 96% 0.0 mm 0.00 W/m2
23:35 12.2 °C 11.6 °C 1004.6 hPa Calm   6.4 km/h 96% 0.0 mm 0.00 W/m2
23:40 12.2 °C 11.6 °C 1004.6 hPa SE 3.2 km/h 9.7 km/h 96% 0.3 mm 0.00 W/m2
23:45 12.3 °C 11.7 °C 1004.3 hPa East 3.2 km/h 6.4 km/h 96% 0.3 mm 0.00 W/m2
23:50 12.2 °C 11.6 °C 1004.3 hPa East 7.9 km/h 8.0 km/h 96% 0.3 mm 0.00 W/m2
23:55 12.3 °C 11.7 °C 1003.9 hPa ESE 3.2 km/h 8.0 km/h 96% 0.3 mm 0.00 W/m2